sensor_id;sensor_type;location;lat;lon;timestamp;pressure;altitude;pressure_sealevel;temperature;humidity
23261;BME280;11799;47.740;-3.390;2023-05-08T00:00:47;102175.38;;;12.73;100.00
23261;BME280;11799;47.740;-3.390;2023-05-08T00:03:13;102186.22;;;12.70;100.00
23261;BME280;11799;47.740;-3.390;2023-05-08T00:05:40;102186.31;;;12.69;100.00
23261;BME280;11799;47.740;-3.390;2023-05-08T00:08:06;102191.81;;;12.66;100.00
23261;BME280;11799;47.740;-3.390;2023-05-08T00:10:31;102183.13;;;12.64;100.00
23261;BME280;11799;47.740;-3.390;2023-05-08T00:12:57;102176.13;;;12.63;100.00
23261;BME280;11799;47.740;-3.390;2023-05-08T00:15:23;102165.72;;;12.60;100.00
23261;BME280;11799;47.740;-3.390;2023-05-08T00:17:49;102170.16;;;12.59;100.00
23261;BME280;11799;47.740;-3.390;2023-05-08T00:20:14;102172.06;;;12.57;100.00
23261;BME280;11799;47.740;-3.390;2023-05-08T00:22:40;102159.13;;;12.52;100.00
23261;BME280;11799;47.740;-3.390;2023-05-08T00:25:06;102160.06;;;12.51;100.00
23261;BME280;11799;47.740;-3.390;2023-05-08T00:27:31;102148.91;;;12.46;100.00
23261;BME280;11799;47.740;-3.390;2023-05-08T00:29:57;102150.72;;;12.46;100.00
23261;BME280;11799;47.740;-3.390;2023-05-08T00:32:23;102155.25;;;12.44;100.00
23261;BME280;11799;47.740;-3.390;2023-05-08T00:34:49;102155.34;;;12.42;100.00
23261;BME280;11799;47.740;-3.390;2023-05-08T00:37:15;102144.19;;;12.37;100.00
23261;BME280;11799;47.740;-3.390;2023-05-08T00:39:41;102135.50;;;12.35;100.00
23261;BME280;11799;47.740;-3.390;2023-05-08T00:42:06;102141.66;;;12.36;100.00
23261;BME280;11799;47.740;-3.390;2023-05-08T00:44:32;102139.28;;;12.31;100.00
23261;BME280;11799;47.740;-3.390;2023-05-08T00:46:57;102149.88;;;12.31;100.00
23261;BME280;11799;47.740;-3.390;2023-05-08T00:49:24;102146.59;;;12.28;100.00
23261;BME280;11799;47.740;-3.390;2023-05-08T00:51:52;102136.94;;;12.27;100.00
23261;BME280;11799;47.740;-3.390;2023-05-08T00:54:19;102123.88;;;12.23;100.00
23261;BME280;11799;47.740;-3.390;2023-05-08T00:56:45;102130.88;;;12.24;100.00
23261;BME280;11799;47.740;-3.390;2023-05-08T00:59:13;102144.88;;;12.27;100.00
23261;BME280;11799;47.740;-3.390;2023-05-08T01:01:39;102136.28;;;12.23;100.00
23261;BME280;11799;47.740;-3.390;2023-05-08T01:04:06;102132.88;;;12.21;100.00
23261;BME280;11799;47.740;-3.390;2023-05-08T01:06:32;102145.38;;;12.19;100.00
23261;BME280;11799;47.740;-3.390;2023-05-08T01:09:02;102146.22;;;12.19;100.00
23261;BME280;11799;47.740;-3.390;2023-05-08T01:11:31;102133.06;;;12.18;100.00
23261;BME280;11799;47.740;-3.390;2023-05-08T01:32:45;102114.53;;;12.18;100.00
23261;BME280;11799;47.740;-3.390;2023-05-08T01:35:35;102124.19;;;12.19;100.00
23261;BME280;11799;47.740;-3.390;2023-05-08T01:38:25;102117.28;;;12.16;100.00
23261;BME280;11799;47.740;-3.390;2023-05-08T01:41:02;102115.38;;;12.18;100.00
23261;BME280;11799;47.740;-3.390;2023-05-08T01:43:40;102117.09;;;12.19;100.00
23261;BME280;11799;47.740;-3.390;2023-05-08T01:46:13;102117.94;;;12.20;100.00
23261;BME280;11799;47.740;-3.390;2023-05-08T01:48:46;102121.34;;;12.22;100.00
23261;BME280;11799;47.740;-3.390;2023-05-08T01:51:17;102115.94;;;12.23;100.00
23261;BME280;11799;47.740;-3.390;2023-05-08T01:53:50;102115.00;;;12.24;100.00
23261;BME280;11799;47.740;-3.390;2023-05-08T01:56:22;102113.09;;;12.27;100.00
23261;BME280;11799;47.740;-3.390;2023-05-08T01:58:50;102113.00;;;12.28;100.00
23261;BME280;11799;47.740;-3.390;2023-05-08T02:01:20;102114.69;;;12.29;100.00
23261;BME280;11799;47.740;-3.390;2023-05-08T02:03:47;102114.59;;;12.31;100.00
23261;BME280;11799;47.740;-3.390;2023-05-08T02:06:14;102111.84;;;12.32;100.00
23261;BME280;11799;47.740;-3.390;2023-05-08T02:08:42;102118.66;;;12.36;100.00
23261;BME280;11799;47.740;-3.390;2023-05-08T02:11:09;102118.56;;;12.38;100.00
23261;BME280;11799;47.740;-3.390;2023-05-08T02:13:38;102117.72;;;12.37;100.00
23261;BME280;11799;47.740;-3.390;2023-05-08T02:16:06;102114.00;;;12.40;100.00
23261;BME280;11799;47.740;-3.390;2023-05-08T02:18:33;102105.22;;;12.39;100.00
23261;BME280;11799;47.740;-3.390;2023-05-08T02:21:01;102107.66;;;12.42;100.00
23261;BME280;11799;47.740;-3.390;2023-05-08T02:23:29;102107.56;;;12.44;100.00
23261;BME280;11799;47.740;-3.390;2023-05-08T02:25:56;102105.66;;;12.46;100.00
23261;BME280;11799;47.740;-3.390;2023-05-08T02:28:23;102097.72;;;12.46;100.00
23261;BME280;11799;47.740;-3.390;2023-05-08T02:30:50;102106.41;;;12.48;100.00
23261;BME280;11799;47.740;-3.390;2023-05-08T02:33:16;102096.56;;;12.50;100.00
23261;BME280;11799;47.740;-3.390;2023-05-08T02:35:43;102095.53;;;12.52;100.00
23261;BME280;11799;47.740;-3.390;2023-05-08T02:38:11;102092.88;;;12.52;100.00
23261;BME280;11799;47.740;-3.390;2023-05-08T02:40:41;102096.06;;;12.57;100.00
23261;BME280;11799;47.740;-3.390;2023-05-08T02:43:09;102089.81;;;12.59;100.00
23261;BME280;11799;47.740;-3.390;2023-05-08T02:45:45;102097.66;;;12.60;100.00
23261;BME280;11799;47.740;-3.390;2023-05-08T02:48:27;102103.81;;;12.61;100.00
23261;BME280;11799;47.740;-3.390;2023-05-08T02:51:03;102092.16;;;12.63;100.00
23261;BME280;11799;47.740;-3.390;2023-05-08T02:53:35;102091.22;;;12.64;100.00
23261;BME280;11799;47.740;-3.390;2023-05-08T02:56:09;102097.25;;;12.66;100.00
23261;BME280;11799;47.740;-3.390;2023-05-08T02:58:41;102095.38;;;12.68;100.00
23261;BME280;11799;47.740;-3.390;2023-05-08T03:01:27;102097.06;;;12.69;100.00
23261;BME280;11799;47.740;-3.390;2023-05-08T03:04:01;102096.09;;;12.70;100.00
23261;BME280;11799;47.740;-3.390;2023-05-08T03:06:32;102092.47;;;12.71;100.00
23261;BME280;11799;47.740;-3.390;2023-05-08T03:09:00;102088.88;;;12.72;100.00
23261;BME280;11799;47.740;-3.390;2023-05-08T03:11:37;102099.38;;;12.74;100.00
23261;BME280;11799;47.740;-3.390;2023-05-08T03:14:05;102095.78;;;12.75;100.00
23261;BME280;11799;47.740;-3.390;2023-05-08T03:16:37;102092.28;;;12.74;100.00
23261;BME280;11799;47.740;-3.390;2023-05-08T03:19:11;102091.97;;;12.79;100.00
23261;BME280;11799;47.740;-3.390;2023-05-08T03:21:39;102101.63;;;12.80;100.00
23261;BME280;11799;47.740;-3.390;2023-05-08T03:24:08;102090.91;;;12.81;100.00
23261;BME280;11799;47.740;-3.390;2023-05-08T03:26:35;102096.00;;;12.84;100.00
23261;BME280;11799;47.740;-3.390;2023-05-08T03:29:01;102094.09;;;12.86;100.00
23261;BME280;11799;47.740;-3.390;2023-05-08T03:31:31;102095.50;;;12.92;100.00
23261;BME280;11799;47.740;-3.390;2023-05-08T03:33:57;102090.09;;;12.94;100.00
23261;BME280;11799;47.740;-3.390;2023-05-08T03:36:25;102086.50;;;12.95;100.00
23261;BME280;11799;47.740;-3.390;2023-05-08T03:38:51;102094.13;;;12.99;100.00
23261;BME280;11799;47.740;-3.390;2023-05-08T03:41:17;102093.19;;;13.00;100.00
23261;BME280;11799;47.740;-3.390;2023-05-08T03:43:43;102093.19;;;13.00;100.00
23261;BME280;11799;47.740;-3.390;2023-05-08T03:46:09;102092.97;;;13.03;100.00
23261;BME280;11799;47.740;-3.390;2023-05-08T03:48:35;102093.06;;;13.02;100.00
23261;BME280;11799;47.740;-3.390;2023-05-08T03:51:03;102093.63;;;13.07;100.00
23261;BME280;11799;47.740;-3.390;2023-05-08T03:53:31;102091.72;;;13.09;100.00
23261;BME280;11799;47.740;-3.390;2023-05-08T03:55:58;102087.25;;;13.09;100.00
23261;BME280;11799;47.740;-3.390;2023-05-08T04:01:39;102091.41;;;13.13;100.00
23261;BME280;11799;47.740;-3.390;2023-05-08T04:04:11;102090.44;;;13.14;100.00
23261;BME280;11799;47.740;-3.390;2023-05-08T04:07:08;102082.31;;;13.17;100.00
23261;BME280;11799;47.740;-3.390;2023-05-08T04:12:38;102081.16;;;13.21;100.00
23261;BME280;11799;47.740;-3.390;2023-05-08T04:15:08;102079.34;;;13.22;100.00
23261;BME280;11799;47.740;-3.390;2023-05-08T04:17:50;102090.69;;;13.24;100.00
23261;BME280;11799;47.740;-3.390;2023-05-08T04:20:19;102081.78;;;13.25;100.00
23261;BME280;11799;47.740;-3.390;2023-05-08T04:22:49;102090.59;;;13.26;100.00
23261;BME280;11799;47.740;-3.390;2023-05-08T04:25:17;102080.09;;;13.24;100.00
23261;BME280;11799;47.740;-3.390;2023-05-08T04:27:45;102086.03;;;13.28;100.00
23261;BME280;11799;47.740;-3.390;2023-05-08T04:30:11;102085.88;;;13.29;100.00
23261;BME280;11799;47.740;-3.390;2023-05-08T04:32:38;102085.88;;;13.29;100.00
23261;BME280;11799;47.740;-3.390;2023-05-08T04:35:04;102083.88;;;13.33;100.00
23261;BME280;11799;47.740;-3.390;2023-05-08T04:37:31;102084.72;;;13.33;100.00
23261;BME280;11799;47.740;-3.390;2023-05-08T04:39:59;102082.91;;;13.34;100.00
23261;BME280;11799;47.740;-3.390;2023-05-08T04:42:26;102075.81;;;13.34;100.00
23261;BME280;11799;47.740;-3.390;2023-05-08T04:44:54;102083.66;;;13.36;100.00
23261;BME280;11799;47.740;-3.390;2023-05-08T04:47:20;102086.44;;;13.34;100.00
23261;BME280;11799;47.740;-3.390;2023-05-08T04:49:46;102082.81;;;13.35;100.00
23261;BME280;11799;47.740;-3.390;2023-05-08T04:52:11;102081.84;;;13.36;100.00
23261;BME280;11799;47.740;-3.390;2023-05-08T04:54:38;102090.66;;;13.37;100.00
23261;BME280;11799;47.740;-3.390;2023-05-08T04:57:04;102094.16;;;13.37;100.00
23261;BME280;11799;47.740;-3.390;2023-05-08T04:59:31;102097.56;;;13.39;100.00
23261;BME280;11799;47.740;-3.390;2023-05-08T05:01:57;102097.56;;;13.39;100.00
23261;BME280;11799;47.740;-3.390;2023-05-08T05:04:23;102100.97;;;13.41;100.00
23261;BME280;11799;47.740;-3.390;2023-05-08T05:06:48;102096.41;;;13.43;100.00
23261;BME280;11799;47.740;-3.390;2023-05-08T05:09:14;102095.44;;;13.44;100.00
23261;BME280;11799;47.740;-3.390;2023-05-08T05:11:40;102094.59;;;13.44;100.00
23261;BME280;11799;47.740;-3.390;2023-05-08T05:14:06;102101.59;;;13.45;100.00
23261;BME280;11799;47.740;-3.390;2023-05-08T05:16:32;102098.84;;;13.46;100.00
23261;BME280;11799;47.740;-3.390;2023-05-08T05:18:58;102096.19;;;13.46;100.00
23261;BME280;11799;47.740;-3.390;2023-05-08T05:21:23;102099.59;;;13.48;100.00
23261;BME280;11799;47.740;-3.390;2023-05-08T05:23:50;102097.78;;;13.49;100.00
23261;BME280;11799;47.740;-3.390;2023-05-08T05:26:16;102091.53;;;13.50;100.00
23261;BME280;11799;47.740;-3.390;2023-05-08T05:28:41;102093.31;;;13.49;100.00
23261;BME280;11799;47.740;-3.390;2023-05-08T05:31:07;102095.88;;;13.51;100.00
23261;BME280;11799;47.740;-3.390;2023-05-08T05:33:32;102095.03;;;13.50;100.00
23261;BME280;11799;47.740;-3.390;2023-05-08T05:35:58;102085.03;;;13.54;100.00
23261;BME280;11799;47.740;-3.390;2023-05-08T05:38:24;102071.88;;;13.52;100.00
23261;BME280;11799;47.740;-3.390;2023-05-08T05:40:50;102080.69;;;13.53;100.00
23261;BME280;11799;47.740;-3.390;2023-05-08T05:43:15;102081.66;;;13.52;100.00
23261;BME280;11799;47.740;-3.390;2023-05-08T05:45:41;102089.50;;;13.53;100.00
23261;BME280;11799;47.740;-3.390;2023-05-08T05:48:07;102095.66;;;13.54;100.00
23261;BME280;11799;47.740;-3.390;2023-05-08T05:50:33;102107.75;;;13.58;100.00
23261;BME280;11799;47.740;-3.390;2023-05-08T05:52:59;102105.94;;;13.59;100.00
23261;BME280;11799;47.740;-3.390;2023-05-08T05:55:25;102106.91;;;13.58;100.00
23261;BME280;11799;47.740;-3.390;2023-05-08T05:57:51;102108.59;;;13.59;100.00
23261;BME280;11799;47.740;-3.390;2023-05-08T06:00:17;102110.19;;;13.61;100.00
23261;BME280;11799;47.740;-3.390;2023-05-08T06:02:49;102103.81;;;13.64;100.00
23261;BME280;11799;47.740;-3.390;2023-05-08T06:05:16;102109.03;;;13.65;100.00
23261;BME280;11799;47.740;-3.390;2023-05-08T06:07:43;102104.56;;;13.66;100.00
23261;BME280;11799;47.740;-3.390;2023-05-08T06:10:09;102107.13;;;13.67;100.00
23261;BME280;11799;47.740;-3.390;2023-05-08T06:12:35;102121.13;;;13.69;100.00
23261;BME280;11799;47.740;-3.390;2023-05-08T06:15:01;102124.53;;;13.71;100.00
23261;BME280;11799;47.740;-3.390;2023-05-08T06:17:27;102121.66;;;13.74;100.00
23261;BME280;11799;47.740;-3.390;2023-05-08T06:19:52;102130.38;;;13.76;100.00
23261;BME280;11799;47.740;-3.390;2023-05-08T06:22:20;102128.56;;;13.77;100.00
23261;BME280;11799;47.740;-3.390;2023-05-08T06:24:49;102131.75;;;13.82;100.00
23261;BME280;11799;47.740;-3.390;2023-05-08T06:27:21;102137.69;;;13.85;100.00
23261;BME280;11799;47.740;-3.390;2023-05-08T06:29:47;102138.63;;;13.84;100.00
23261;BME280;11799;47.740;-3.390;2023-05-08T06:32:16;102144.56;;;13.88;100.00
23261;BME280;11799;47.740;-3.390;2023-05-08T06:34:42;102139.97;;;13.90;100.00
23261;BME280;11799;47.740;-3.390;2023-05-08T06:37:07;102139.97;;;13.90;100.00
23261;BME280;11799;47.740;-3.390;2023-05-08T06:39:33;102139.88;;;13.92;100.00
23261;BME280;11799;47.740;-3.390;2023-05-08T06:41:58;102132.66;;;13.94;100.00
23261;BME280;11799;47.740;-3.390;2023-05-08T06:44:28;102130.63;;;13.97;100.00
23261;BME280;11799;47.740;-3.390;2023-05-08T06:46:54;102138.59;;;13.97;100.00
23261;BME280;11799;47.740;-3.390;2023-05-08T06:49:20;102138.59;;;13.97;100.00
23261;BME280;11799;47.740;-3.390;2023-05-08T06:51:45;102143.91;;;13.97;100.00
23261;BME280;11799;47.740;-3.390;2023-05-08T06:54:11;102137.97;;;13.94;100.00
23261;BME280;11799;47.740;-3.390;2023-05-08T06:56:36;102143.56;;;14.02;100.00
23261;BME280;11799;47.740;-3.390;2023-05-08T06:59:02;102135.50;;;14.03;100.00
23261;BME280;11799;47.740;-3.390;2023-05-08T07:01:27;102130.94;;;14.05;100.00
23261;BME280;11799;47.740;-3.390;2023-05-08T07:03:53;102120.31;;;14.05;100.00
23261;BME280;11799;47.740;-3.390;2023-05-08T07:06:18;102127.09;;;14.09;100.00
23261;BME280;11799;47.740;-3.390;2023-05-08T07:08:44;102121.66;;;14.11;100.00
23261;BME280;11799;47.740;-3.390;2023-05-08T07:11:10;102116.34;;;14.11;100.00
23261;BME280;11799;47.740;-3.390;2023-05-08T07:13:35;102119.75;;;14.13;100.00
23261;BME280;11799;47.740;-3.390;2023-05-08T07:16:01;102122.41;;;14.13;100.00
23261;BME280;11799;47.740;-3.390;2023-05-08T07:18:27;102123.16;;;14.15;100.00
23261;BME280;11799;47.740;-3.390;2023-05-08T07:20:53;102122.94;;;14.18;100.00
23261;BME280;11799;47.740;-3.390;2023-05-08T07:23:18;102119.19;;;14.20;100.00
23261;BME280;11799;47.740;-3.390;2023-05-08T07:25:44;102113.78;;;14.22;100.00
23261;BME280;11799;47.740;-3.390;2023-05-08T07:28:10;102110.06;;;14.25;100.00
23261;BME280;11799;47.740;-3.390;2023-05-08T07:30:36;102108.13;;;14.27;100.00
23261;BME280;11799;47.740;-3.390;2023-05-08T07:33:01;102110.56;;;14.30;100.00
23261;BME280;11799;47.740;-3.390;2023-05-08T07:35:28;102105.88;;;14.33;100.00
23261;BME280;11799;47.740;-3.390;2023-05-08T07:37:53;102102.03;;;14.37;100.00
23261;BME280;11799;47.740;-3.390;2023-05-08T07:40:19;102103.44;;;14.43;100.00
23261;BME280;11799;47.740;-3.390;2023-05-08T07:42:44;102118.28;;;14.45;100.00
23261;BME280;11799;47.740;-3.390;2023-05-08T07:45:11;102121.78;;;14.46;100.00
23261;BME280;11799;47.740;-3.390;2023-05-08T07:47:57;102119.13;;;14.46;100.00
23261;BME280;11799;47.740;-3.390;2023-05-08T07:50:24;102112.72;;;14.48;100.00
23261;BME280;11799;47.740;-3.390;2023-05-08T07:52:51;102117.81;;;14.51;100.00
23261;BME280;11799;47.740;-3.390;2023-05-08T07:55:18;102120.38;;;14.53;100.00
23261;BME280;11799;47.740;-3.390;2023-05-08T07:57:44;102118.44;;;14.55;100.00
23261;BME280;11799;47.740;-3.390;2023-05-08T08:00:11;102108.66;;;14.56;100.00
23261;BME280;11799;47.740;-3.390;2023-05-08T08:02:41;102114.59;;;14.59;100.00
23261;BME280;11799;47.740;-3.390;2023-05-08T08:05:07;102116.19;;;14.62;100.00
23261;BME280;11799;47.740;-3.390;2023-05-08T08:07:33;102111.72;;;14.62;100.00
23261;BME280;11799;47.740;-3.390;2023-05-08T08:10:00;102111.25;;;14.68;100.00
23261;BME280;11799;47.740;-3.390;2023-05-08T08:12:27;102112.00;;;14.70;100.00
23261;BME280;11799;47.740;-3.390;2023-05-08T08:14:53;102125.06;;;14.73;100.00
23261;BME280;11799;47.740;-3.390;2023-05-08T08:17:18;102116.84;;;14.76;100.00
23261;BME280;11799;47.740;-3.390;2023-05-08T08:19:44;102132.06;;;14.74;100.00
23261;BME280;11799;47.740;-3.390;2023-05-08T08:22:10;102132.59;;;14.79;100.00
23261;BME280;11799;47.740;-3.390;2023-05-08T08:24:35;102130.53;;;14.83;100.00
23261;BME280;11799;47.740;-3.390;2023-05-08T08:27:01;102139.13;;;14.86;100.00
23261;BME280;11799;47.740;-3.390;2023-05-08T08:29:28;102122.84;;;14.91;100.00
23261;BME280;11799;47.740;-3.390;2023-05-08T08:31:53;102130.47;;;14.96;100.00
23261;BME280;11799;47.740;-3.390;2023-05-08T08:34:19;102130.47;;;14.96;100.00
23261;BME280;11799;47.740;-3.390;2023-05-08T08:36:44;102134.72;;;14.98;100.00
23261;BME280;11799;47.740;-3.390;2023-05-08T08:39:10;102125.88;;;14.98;100.00
23261;BME280;11799;47.740;-3.390;2023-05-08T08:41:37;102123.97;;;15.00;100.00
23261;BME280;11799;47.740;-3.390;2023-05-08T08:44:04;102125.78;;;14.99;100.00
23261;BME280;11799;47.740;-3.390;2023-05-08T08:46:30;102130.59;;;14.94;100.00
23261;BME280;11799;47.740;-3.390;2023-05-08T08:48:58;102124.31;;;14.95;100.00
23261;BME280;11799;47.740;-3.390;2023-05-08T08:51:26;102121.66;;;14.95;100.00
23261;BME280;11799;47.740;-3.390;2023-05-08T08:54:07;102122.38;;;14.97;100.00
23261;BME280;11799;47.740;-3.390;2023-05-08T08:56:35;102113.78;;;14.94;100.00
23261;BME280;11799;47.740;-3.390;2023-05-08T08:59:03;102105.69;;;14.95;100.00
23261;BME280;11799;47.740;-3.390;2023-05-08T09:01:32;102113.53;;;14.97;100.00
23261;BME280;11799;47.740;-3.390;2023-05-08T09:04:01;102120.91;;;14.93;100.00
23261;BME280;11799;47.740;-3.390;2023-05-08T09:06:27;102119.09;;;14.94;100.00
23261;BME280;11799;47.740;-3.390;2023-05-08T09:08:54;102111.47;;;14.89;100.00
23261;BME280;11799;47.740;-3.390;2023-05-08T09:11:21;102116.50;;;14.81;100.00
23261;BME280;11799;47.740;-3.390;2023-05-08T09:13:47;102111.31;;;14.79;100.00
23261;BME280;11799;47.740;-3.390;2023-05-08T09:16:12;102108.75;;;14.78;100.00
23261;BME280;11799;47.740;-3.390;2023-05-08T09:18:39;102098.13;;;14.78;100.00
23261;BME280;11799;47.740;-3.390;2023-05-08T09:21:05;102095.81;;;14.73;100.00
23261;BME280;11799;47.740;-3.390;2023-05-08T09:23:31;102101.97;;;14.74;100.00
23261;BME280;11799;47.740;-3.390;2023-05-08T09:25:56;102094.34;;;14.69;100.00
23261;BME280;11799;47.740;-3.390;2023-05-08T09:28:23;102104.47;;;14.64;100.00
23261;BME280;11799;47.740;-3.390;2023-05-08T09:30:54;102111.59;;;14.64;100.00
23261;BME280;11799;47.740;-3.390;2023-05-08T09:33:22;102117.16;;;14.61;100.00
23261;BME280;11799;47.740;-3.390;2023-05-08T09:35:48;102112.66;;;14.61;100.00
23261;BME280;11799;47.740;-3.390;2023-05-08T09:38:33;102112.78;;;14.60;100.00
23261;BME280;11799;47.740;-3.390;2023-05-08T09:41:15;102107.25;;;14.63;100.00
23261;BME280;11799;47.740;-3.390;2023-05-08T09:43:44;102100.00;;;14.65;100.00
23261;BME280;11799;47.740;-3.390;2023-05-08T09:46:25;102088.25;;;14.56;100.00
23261;BME280;11799;47.740;-3.390;2023-05-08T09:48:53;102097.69;;;14.60;100.00
23261;BME280;11799;47.740;-3.390;2023-05-08T09:51:19;102094.19;;;14.60;100.00
23261;BME280;11799;47.740;-3.390;2023-05-08T09:53:45;102098.75;;;14.58;100.00
23261;BME280;11799;47.740;-3.390;2023-05-08T09:56:10;102101.53;;;14.56;100.00
23261;BME280;11799;47.740;-3.390;2023-05-08T09:58:37;102109.72;;;14.53;100.00
23261;BME280;11799;47.740;-3.390;2023-05-08T10:01:03;102103.78;;;14.49;100.00
23261;BME280;11799;47.740;-3.390;2023-05-08T10:03:46;102096.44;;;14.53;100.00
23261;BME280;11799;47.740;-3.390;2023-05-08T10:06:12;102094.53;;;14.55;100.00
23261;BME280;11799;47.740;-3.390;2023-05-08T10:08:39;102099.84;;;14.55;100.00
23261;BME280;11799;47.740;-3.390;2023-05-08T10:11:16;102105.88;;;14.57;100.00
23261;BME280;11799;47.740;-3.390;2023-05-08T10:13:42;102093.56;;;14.56;100.00
23261;BME280;11799;47.740;-3.390;2023-05-08T10:16:16;102085.34;;;14.59;100.00
23261;BME280;11799;47.740;-3.390;2023-05-08T10:18:47;102070.47;;;14.57;100.00
23261;BME280;11799;47.740;-3.390;2023-05-08T10:21:14;102073.75;;;14.60;100.00
23261;BME280;11799;47.740;-3.390;2023-05-08T10:23:46;102075.00;;;14.67;100.00
23261;BME280;11799;47.740;-3.390;2023-05-08T10:26:22;102083.00;;;14.78;100.00
23261;BME280;11799;47.740;-3.390;2023-05-08T10:28:54;102088.69;;;14.74;100.00
23261;BME280;11799;47.740;-3.390;2023-05-08T10:31:23;102078.28;;;14.71;100.00
23261;BME280;11799;47.740;-3.390;2023-05-08T10:33:54;102084.59;;;14.81;100.00
23261;BME280;11799;47.740;-3.390;2023-05-08T10:36:20;102079.63;;;14.76;100.00
23261;BME280;11799;47.740;-3.390;2023-05-08T10:38:48;102074.31;;;14.76;100.00
23261;BME280;11799;47.740;-3.390;2023-05-08T10:41:14;102072.25;;;14.80;100.00
23261;BME280;11799;47.740;-3.390;2023-05-08T10:43:41;102073.84;;;14.82;100.00
23261;BME280;11799;47.740;-3.390;2023-05-08T10:46:21;102073.72;;;14.84;100.00
23261;BME280;11799;47.740;-3.390;2023-05-08T10:49:04;102074.56;;;14.84;100.00
23261;BME280;11799;47.740;-3.390;2023-05-08T10:51:51;102081.25;;;14.90;100.00
23261;BME280;11799;47.740;-3.390;2023-05-08T10:54:29;102081.25;;;14.90;100.00
23261;BME280;11799;47.740;-3.390;2023-05-08T10:57:07;102079.91;;;14.84;100.00
23261;BME280;11799;47.740;-3.390;2023-05-08T10:59:34;102082.56;;;14.84;100.00
23261;BME280;11799;47.740;-3.390;2023-05-08T11:02:05;102082.66;;;14.83;100.00
23261;BME280;11799;47.740;-3.390;2023-05-08T11:04:31;102089.47;;;14.87;100.00
23261;BME280;11799;47.740;-3.390;2023-05-08T11:06:57;102091.38;;;14.85;100.00
23261;BME280;11799;47.740;-3.390;2023-05-08T11:09:46;102097.03;;;14.80;100.00
23261;BME280;11799;47.740;-3.390;2023-05-08T11:12:25;102096.47;;;14.88;100.00
23261;BME280;11799;47.740;-3.390;2023-05-08T11:15:04;102099.00;;;14.90;100.00
23261;BME280;11799;47.740;-3.390;2023-05-08T11:17:34;102094.19;;;14.95;100.00
23261;BME280;11799;47.740;-3.390;2023-05-08T11:20:02;102092.03;;;15.00;100.00
23261;BME280;11799;47.740;-3.390;2023-05-08T11:22:29;102092.28;;;15.08;100.00
23261;BME280;11799;47.740;-3.390;2023-05-08T11:25:09;102086.84;;;15.09;100.00
23261;BME280;11799;47.740;-3.390;2023-05-08T11:33:11;102074.78;;;15.28;100.00
23261;BME280;11799;47.740;-3.390;2023-05-08T11:38:34;102091.84;;;15.36;100.00
23261;BME280;11799;47.740;-3.390;2023-05-08T11:43:32;102079.50;;;15.35;100.00
23261;BME280;11799;47.740;-3.390;2023-05-08T11:46:02;102070.78;;;15.33;100.00
23261;BME280;11799;47.740;-3.390;2023-05-08T11:48:29;102074.66;;;15.29;100.00
23261;BME280;11799;47.740;-3.390;2023-05-08T11:50:55;102074.66;;;15.29;100.00
23261;BME280;11799;47.740;-3.390;2023-05-08T11:53:21;102078.41;;;15.27;100.00
23261;BME280;11799;47.740;-3.390;2023-05-08T11:55:51;102071.25;;;15.27;100.00
23261;BME280;11799;47.740;-3.390;2023-05-08T11:58:17;102067.88;;;15.25;100.00
23261;BME280;11799;47.740;-3.390;2023-05-08T12:00:44;102065.34;;;15.24;100.00
23261;BME280;11799;47.740;-3.390;2023-05-08T12:03:15;102067.38;;;15.20;100.00
23261;BME280;11799;47.740;-3.390;2023-05-08T12:05:42;102064.22;;;15.15;100.00
23261;BME280;11799;47.740;-3.390;2023-05-08T12:08:09;102059.25;;;15.10;100.00
23261;BME280;11799;47.740;-3.390;2023-05-08T12:10:55;102060.47;;;15.06;100.00
23261;BME280;11799;47.740;-3.390;2023-05-08T12:13:28;102051.75;;;15.04;100.00
23261;BME280;11799;47.740;-3.390;2023-05-08T12:15:55;102048.50;;;15.01;100.00
23261;BME280;11799;47.740;-3.390;2023-05-08T12:18:22;102045.13;;;14.99;100.00
23261;BME280;11799;47.740;-3.390;2023-05-08T12:20:59;102043.44;;;14.98;100.00
23261;BME280;11799;47.740;-3.390;2023-05-08T12:23:26;102046.94;;;14.98;100.00
23261;BME280;11799;47.740;-3.390;2023-05-08T12:25:53;102044.38;;;14.97;100.00
23261;BME280;11799;47.740;-3.390;2023-05-08T12:28:18;102052.38;;;14.97;100.00
23261;BME280;11799;47.740;-3.390;2023-05-08T12:30:44;102051.88;;;14.92;100.00
23261;BME280;11799;47.740;-3.390;2023-05-08T12:33:10;102052.72;;;14.92;100.00
23261;BME280;11799;47.740;-3.390;2023-05-08T12:35:37;102046.78;;;14.89;100.00
23261;BME280;11799;47.740;-3.390;2023-05-08T12:38:05;102054.53;;;14.92;100.00
23261;BME280;11799;47.740;-3.390;2023-05-08T12:40:38;102052.09;;;14.89;100.00
23261;BME280;11799;47.740;-3.390;2023-05-08T12:43:04;102045.72;;;14.91;100.00
23261;BME280;11799;47.740;-3.390;2023-05-08T12:45:32;102039.88;;;14.86;100.00
23261;BME280;11799;47.740;-3.390;2023-05-08T12:48:03;102047.63;;;14.89;100.00
23261;BME280;11799;47.740;-3.390;2023-05-08T12:50:32;102055.72;;;14.88;100.00
23261;BME280;11799;47.740;-3.390;2023-05-08T12:53:02;102050.41;;;14.88;100.00
23261;BME280;11799;47.740;-3.390;2023-05-08T12:55:30;102040.00;;;14.84;100.00
23261;BME280;11799;47.740;-3.390;2023-05-08T12:58:01;102054.16;;;14.85;100.00
23261;BME280;11799;47.740;-3.390;2023-05-08T13:03:00;102046.78;;;14.89;100.00
23261;BME280;11799;47.740;-3.390;2023-05-08T13:05:26;102039.88;;;14.86;100.00
23261;BME280;11799;47.740;-3.390;2023-05-08T13:07:51;102037.97;;;14.88;100.00
23261;BME280;11799;47.740;-3.390;2023-05-08T13:10:23;102051.13;;;14.90;100.00
23261;BME280;11799;47.740;-3.390;2023-05-08T13:12:48;102053.06;;;14.88;100.00
23261;BME280;11799;47.740;-3.390;2023-05-08T13:15:14;102054.88;;;14.87;100.00